Etusivu
METAR-TAF:

METAR-TAF

Lentoasemat :

Constantine, Algeria

Leveyspiiri: 36-17N, Pituuspiiri: 006-37E, korkeus merenpinnasta: 694 m

Tämänhetkinen sää

Tämä raportti tehtiin 42 minuuttia sitten, kello 22.00 UTC
Tuuli 5 kn lännestä/luoteesta
Lämpötila 20°C
Kosteus 60%
Ilmanpaine 1019 hPa
Näkyvyys 10 km tai enemmän
ei pilviä alle 1500 m:ssä eikä cumulonimbus-pilviä

METAR: DABC 072200Z 29005KT CAVOK 20/12 Q1019

Aika: 23:42 (22:42 UTC)

Sääennuste

Tämä raportti tehtiin 5 tuntia ja 42 minuuttia sitten, kello 17.00 UTC
Ennuste voimassa 07. päivästä klo 18 UTC - 08. päivään klo 18 UTC
Tuuli 11 kn pohjoisesta
Näkyvyys 10 km tai enemmän
ei pilviä alle 1500 m:ssä eikä cumulonimbus-pilviä
Tulossa
07. päivästä klo 19 UTC - 07. päivään klo 21 UTC
Tuuli 8 kn idästä/koillisesta
Todennäköisyys 30% :
Ajoittain
08. päivästä klo 12 UTC - 08. päivään klo 18 UTC
Tuuli 11 kn pohjoisesta

TAF: DABC 071700Z 0718/0818 01011KT CAVOK BECMG 0719/0721 07008KT PROB30 TEMPO 0812/0818 35011KT

Säähavainnot ja -ennusteet yli 4000 lentoasemalta (METAR- ja TAF-raportit).

Käytössä olevat sääasemat on merkitty karttaan keltaisilla ja punaisilla pisteillä.

Aseta hiiri pisteen päälle nähdäksesi sääaseman nimen.

Klikkaa sitten nähdäksesi säähavainnot ja -ennusteet.

Kartan vaihtaminen: klikkaa mustalla rastilla varustettuja vihreitä pisteitä, niin voit zoomata sisään; viivalla varustettua vihreää pistettä, niin voit zoomata ulos tai vihreitä nuolia, niin pääset viereisille kartoille.


METAR-TAF: